sim
Sign-in with your pilot id or email,
or register
Callsign
Passwort

Schedule Details

Flight Number: OEO1524
Departure: Dusseldorf International Airport (EDDL) at 12:10
Arrival: Hannover Langenhagen Airport (EDDV) at 13:20

Weather Information
Getting current METAR information for EDDL 251720Z 36010KT 320V040 9999 FEW044 20/10 Q1033 BECMG 36005KT
Getting current METAR information for EDDV 251720Z 35009KT 310V040 9999 FEW030 BKN035 13/07 Q1033 NOSIG

Schedule Frequency

Route Map